sensor_id;sensor_type;location;lat;lon;timestamp;P1;durP1;ratioP1;P2;durP2;ratioP2
70459;SDS011;57920;54.796;9.430;2022-12-20T00:02:13;2.07;;;1.67;;
70459;SDS011;57920;54.796;9.430;2022-12-20T00:04:39;3.00;;;2.07;;
70459;SDS011;57920;54.796;9.430;2022-12-20T00:07:04;1.67;;;1.50;;
70459;SDS011;57920;54.796;9.430;2022-12-20T00:09:30;1.57;;;1.47;;
70459;SDS011;57920;54.796;9.430;2022-12-20T00:11:55;2.47;;;1.80;;
70459;SDS011;57920;54.796;9.430;2022-12-20T00:14:21;2.00;;;1.70;;
70459;SDS011;57920;54.796;9.430;2022-12-20T00:16:46;2.20;;;1.87;;
70459;SDS011;57920;54.796;9.430;2022-12-20T00:19:12;1.70;;;1.60;;
70459;SDS011;57920;54.796;9.430;2022-12-20T00:21:37;2.80;;;1.60;;
70459;SDS011;57920;54.796;9.430;2022-12-20T00:24:03;1.60;;;1.50;;
70459;SDS011;57920;54.796;9.430;2022-12-20T00:26:30;2.10;;;1.73;;
70459;SDS011;57920;54.796;9.430;2022-12-20T00:28:57;3.03;;;1.87;;
70459;SDS011;57920;54.796;9.430;2022-12-20T00:31:25;2.37;;;1.40;;
70459;SDS011;57920;54.796;9.430;2022-12-20T00:33:52;1.20;;;1.10;;
70459;SDS011;57920;54.796;9.430;2022-12-20T00:36:20;1.80;;;1.60;;
70459;SDS011;57920;54.796;9.430;2022-12-20T00:38:47;2.17;;;1.60;;
70459;SDS011;57920;54.796;9.430;2022-12-20T00:41:14;1.47;;;1.33;;
70459;SDS011;57920;54.796;9.430;2022-12-20T00:43:42;1.20;;;1.10;;
70459;SDS011;57920;54.796;9.430;2022-12-20T00:46:08;1.87;;;1.77;;
70459;SDS011;57920;54.796;9.430;2022-12-20T00:48:35;4.00;;;1.87;;
70459;SDS011;57920;54.796;9.430;2022-12-20T00:51:03;1.40;;;1.30;;
70459;SDS011;57920;54.796;9.430;2022-12-20T00:53:30;2.03;;;1.50;;
70459;SDS011;57920;54.796;9.430;2022-12-20T00:55:57;2.53;;;1.57;;
70459;SDS011;57920;54.796;9.430;2022-12-20T00:58:23;1.83;;;1.67;;
70459;SDS011;57920;54.796;9.430;2022-12-20T01:00:49;1.70;;;1.60;;
70459;SDS011;57920;54.796;9.430;2022-12-20T01:03:15;2.17;;;1.53;;
70459;SDS011;57920;54.796;9.430;2022-12-20T01:05:48;1.50;;;1.40;;
70459;SDS011;57920;54.796;9.430;2022-12-20T01:08:18;1.93;;;1.60;;
70459;SDS011;57920;54.796;9.430;2022-12-20T01:10:45;1.93;;;1.70;;
70459;SDS011;57920;54.796;9.430;2022-12-20T01:13:11;1.70;;;1.40;;
70459;SDS011;57920;54.796;9.430;2022-12-20T01:15:37;1.93;;;1.60;;
70459;SDS011;57920;54.796;9.430;2022-12-20T01:18:02;1.67;;;1.50;;
70459;SDS011;57920;54.796;9.430;2022-12-20T01:20:28;1.40;;;1.30;;
70459;SDS011;57920;54.796;9.430;2022-12-20T01:22:53;1.30;;;1.20;;
70459;SDS011;57920;54.796;9.430;2022-12-20T01:25:19;1.60;;;1.50;;
70459;SDS011;57920;54.796;9.430;2022-12-20T01:27:44;2.10;;;1.60;;
70459;SDS011;57920;54.796;9.430;2022-12-20T01:30:10;1.83;;;1.03;;
70459;SDS011;57920;54.796;9.430;2022-12-20T01:32:36;1.50;;;1.40;;
70459;SDS011;57920;54.796;9.430;2022-12-20T01:35:02;3.80;;;1.60;;
70459;SDS011;57920;54.796;9.430;2022-12-20T01:37:28;1.63;;;1.50;;
70459;SDS011;57920;54.796;9.430;2022-12-20T01:39:53;2.57;;;1.87;;
70459;SDS011;57920;54.796;9.430;2022-12-20T01:42:19;2.20;;;1.27;;
70459;SDS011;57920;54.796;9.430;2022-12-20T01:47:10;2.07;;;1.60;;
70459;SDS011;57920;54.796;9.430;2022-12-20T01:54:40;2.83;;;1.90;;
70459;SDS011;57920;54.796;9.430;2022-12-20T01:57:20;1.23;;;1.13;;
70459;SDS011;57920;54.796;9.430;2022-12-20T01:59:49;1.70;;;1.37;;
70459;SDS011;57920;54.796;9.430;2022-12-20T02:02:17;2.87;;;1.50;;
70459;SDS011;57920;54.796;9.430;2022-12-20T02:04:43;2.37;;;1.50;;
70459;SDS011;57920;54.796;9.430;2022-12-20T02:07:09;1.53;;;1.33;;
70459;SDS011;57920;54.796;9.430;2022-12-20T02:09:39;1.47;;;1.30;;
70459;SDS011;57920;54.796;9.430;2022-12-20T02:12:09;1.63;;;1.50;;
70459;SDS011;57920;54.796;9.430;2022-12-20T02:14:49;2.40;;;1.60;;
70459;SDS011;57920;54.796;9.430;2022-12-20T02:17:30;2.10;;;1.47;;
70459;SDS011;57920;54.796;9.430;2022-12-20T02:31:12;3.37;;;1.67;;
70459;SDS011;57920;54.796;9.430;2022-12-20T02:33:42;3.23;;;1.40;;
70459;SDS011;57920;54.796;9.430;2022-12-20T02:36:13;2.57;;;1.40;;
70459;SDS011;57920;54.796;9.430;2022-12-20T02:38:41;1.40;;;1.30;;
70459;SDS011;57920;54.796;9.430;2022-12-20T02:41:40;1.43;;;1.30;;
70459;SDS011;57920;54.796;9.430;2022-12-20T02:44:04;1.23;;;1.13;;
70459;SDS011;57920;54.796;9.430;2022-12-20T02:46:52;2.13;;;1.30;;
70459;SDS011;57920;54.796;9.430;2022-12-20T02:49:20;1.87;;;1.40;;
70459;SDS011;57920;54.796;9.430;2022-12-20T02:51:50;1.97;;;1.60;;
70459;SDS011;57920;54.796;9.430;2022-12-20T02:54:20;1.23;;;1.03;;
70459;SDS011;57920;54.796;9.430;2022-12-20T02:59:42;2.33;;;1.50;;
70459;SDS011;57920;54.796;9.430;2022-12-20T03:02:13;1.67;;;1.47;;
70459;SDS011;57920;54.796;9.430;2022-12-20T03:04:39;1.90;;;1.37;;
70459;SDS011;57920;54.796;9.430;2022-12-20T03:07:07;2.17;;;1.57;;
70459;SDS011;57920;54.796;9.430;2022-12-20T03:09:38;2.50;;;1.50;;
70459;SDS011;57920;54.796;9.430;2022-12-20T03:12:05;1.20;;;1.10;;
70459;SDS011;57920;54.796;9.430;2022-12-20T03:14:33;1.90;;;1.50;;
70459;SDS011;57920;54.796;9.430;2022-12-20T03:16:58;1.33;;;1.10;;
70459;SDS011;57920;54.796;9.430;2022-12-20T03:19:24;1.53;;;0.90;;
70459;SDS011;57920;54.796;9.430;2022-12-20T03:21:50;1.93;;;1.30;;
70459;SDS011;57920;54.796;9.430;2022-12-20T03:24:16;1.63;;;1.50;;
70459;SDS011;57920;54.796;9.430;2022-12-20T03:26:41;1.57;;;1.20;;
70459;SDS011;57920;54.796;9.430;2022-12-20T03:29:07;1.57;;;1.47;;
70459;SDS011;57920;54.796;9.430;2022-12-20T03:31:34;1.60;;;1.37;;
70459;SDS011;57920;54.796;9.430;2022-12-20T03:34:00;2.20;;;1.70;;
70459;SDS011;57920;54.796;9.430;2022-12-20T03:36:25;1.60;;;1.50;;
70459;SDS011;57920;54.796;9.430;2022-12-20T03:38:51;2.40;;;1.70;;
70459;SDS011;57920;54.796;9.430;2022-12-20T03:41:20;1.97;;;1.53;;
70459;SDS011;57920;54.796;9.430;2022-12-20T03:43:46;2.47;;;1.30;;
70459;SDS011;57920;54.796;9.430;2022-12-20T03:46:12;1.80;;;1.37;;
70459;SDS011;57920;54.796;9.430;2022-12-20T03:48:38;1.60;;;1.43;;
70459;SDS011;57920;54.796;9.430;2022-12-20T03:51:04;1.63;;;1.10;;
70459;SDS011;57920;54.796;9.430;2022-12-20T03:53:30;1.20;;;1.10;;
70459;SDS011;57920;54.796;9.430;2022-12-20T03:55:55;4.10;;;1.23;;
70459;SDS011;57920;54.796;9.430;2022-12-20T03:58:21;1.83;;;1.67;;
70459;SDS011;57920;54.796;9.430;2022-12-20T04:00:47;1.70;;;1.37;;
70459;SDS011;57920;54.796;9.430;2022-12-20T04:03:12;2.47;;;1.63;;
70459;SDS011;57920;54.796;9.430;2022-12-20T04:05:38;1.73;;;1.60;;
70459;SDS011;57920;54.796;9.430;2022-12-20T04:08:03;1.67;;;1.50;;
70459;SDS011;57920;54.796;9.430;2022-12-20T04:10:29;1.70;;;1.30;;
70459;SDS011;57920;54.796;9.430;2022-12-20T04:12:55;1.50;;;1.40;;
70459;SDS011;57920;54.796;9.430;2022-12-20T04:15:20;2.30;;;1.30;;
70459;SDS011;57920;54.796;9.430;2022-12-20T04:17:46;2.27;;;1.20;;
70459;SDS011;57920;54.796;9.430;2022-12-20T04:20:13;1.30;;;1.20;;
70459;SDS011;57920;54.796;9.430;2022-12-20T04:22:46;1.73;;;1.13;;
70459;SDS011;57920;54.796;9.430;2022-12-20T04:25:14;1.50;;;1.40;;
70459;SDS011;57920;54.796;9.430;2022-12-20T04:27:41;1.47;;;1.37;;
70459;SDS011;57920;54.796;9.430;2022-12-20T04:30:07;1.97;;;1.60;;
70459;SDS011;57920;54.796;9.430;2022-12-20T04:32:33;2.30;;;1.50;;
70459;SDS011;57920;54.796;9.430;2022-12-20T04:34:59;1.07;;;1.03;;
70459;SDS011;57920;54.796;9.430;2022-12-20T04:37:25;1.17;;;1.07;;
70459;SDS011;57920;54.796;9.430;2022-12-20T04:39:50;1.97;;;1.00;;
70459;SDS011;57920;54.796;9.430;2022-12-20T04:42:16;1.97;;;1.47;;
70459;SDS011;57920;54.796;9.430;2022-12-20T04:44:41;2.13;;;1.60;;
70459;SDS011;57920;54.796;9.430;2022-12-20T04:47:07;3.30;;;1.70;;
70459;SDS011;57920;54.796;9.430;2022-12-20T04:49:34;1.13;;;1.03;;
70459;SDS011;57920;54.796;9.430;2022-12-20T04:51:59;1.30;;;1.20;;
70459;SDS011;57920;54.796;9.430;2022-12-20T04:54:45;1.63;;;1.50;;
70459;SDS011;57920;54.796;9.430;2022-12-20T04:57:11;1.50;;;1.37;;
70459;SDS011;57920;54.796;9.430;2022-12-20T04:59:37;2.00;;;1.50;;
70459;SDS011;57920;54.796;9.430;2022-12-20T05:02:03;1.50;;;1.40;;
70459;SDS011;57920;54.796;9.430;2022-12-20T05:04:29;1.53;;;1.30;;
70459;SDS011;57920;54.796;9.430;2022-12-20T05:06:54;1.40;;;1.30;;
70459;SDS011;57920;54.796;9.430;2022-12-20T05:09:20;1.30;;;1.20;;
70459;SDS011;57920;54.796;9.430;2022-12-20T05:11:45;1.73;;;1.63;;
70459;SDS011;57920;54.796;9.430;2022-12-20T05:14:11;1.60;;;1.30;;
70459;SDS011;57920;54.796;9.430;2022-12-20T05:16:36;2.37;;;1.67;;
70459;SDS011;57920;54.796;9.430;2022-12-20T05:19:02;1.30;;;1.20;;
70459;SDS011;57920;54.796;9.430;2022-12-20T05:21:28;1.50;;;1.00;;
70459;SDS011;57920;54.796;9.430;2022-12-20T05:24:13;1.93;;;1.27;;
70459;SDS011;57920;54.796;9.430;2022-12-20T05:27:08;2.00;;;1.30;;
70459;SDS011;57920;54.796;9.430;2022-12-20T05:29:33;2.33;;;1.43;;
70459;SDS011;57920;54.796;9.430;2022-12-20T05:31:59;1.47;;;1.17;;
70459;SDS011;57920;54.796;9.430;2022-12-20T05:34:24;1.50;;;1.40;;
70459;SDS011;57920;54.796;9.430;2022-12-20T05:36:50;2.77;;;1.20;;
70459;SDS011;57920;54.796;9.430;2022-12-20T05:39:15;1.73;;;1.43;;
70459;SDS011;57920;54.796;9.430;2022-12-20T05:41:41;1.60;;;1.50;;
70459;SDS011;57920;54.796;9.430;2022-12-20T05:44:07;1.73;;;1.60;;
70459;SDS011;57920;54.796;9.430;2022-12-20T05:46:32;1.63;;;1.53;;
70459;SDS011;57920;54.796;9.430;2022-12-20T05:48:58;2.27;;;1.40;;
70459;SDS011;57920;54.796;9.430;2022-12-20T05:51:23;1.57;;;1.37;;
70459;SDS011;57920;54.796;9.430;2022-12-20T05:53:49;1.60;;;1.50;;
70459;SDS011;57920;54.796;9.430;2022-12-20T05:56:15;2.00;;;1.47;;
70459;SDS011;57920;54.796;9.430;2022-12-20T05:58:40;1.70;;;1.47;;
70459;SDS011;57920;54.796;9.430;2022-12-20T06:01:06;1.67;;;1.40;;
70459;SDS011;57920;54.796;9.430;2022-12-20T06:03:33;1.70;;;1.60;;
70459;SDS011;57920;54.796;9.430;2022-12-20T06:05:59;2.43;;;1.63;;
70459;SDS011;57920;54.796;9.430;2022-12-20T06:08:25;1.67;;;1.37;;
70459;SDS011;57920;54.796;9.430;2022-12-20T06:10:51;2.63;;;1.70;;
70459;SDS011;57920;54.796;9.430;2022-12-20T06:13:16;1.90;;;1.40;;
70459;SDS011;57920;54.796;9.430;2022-12-20T06:15:42;2.00;;;1.40;;
70459;SDS011;57920;54.796;9.430;2022-12-20T06:18:08;1.47;;;1.00;;
70459;SDS011;57920;54.796;9.430;2022-12-20T06:20:35;1.40;;;1.30;;
70459;SDS011;57920;54.796;9.430;2022-12-20T06:23:01;2.17;;;1.50;;
70459;SDS011;57920;54.796;9.430;2022-12-20T06:25:27;1.90;;;1.20;;
70459;SDS011;57920;54.796;9.430;2022-12-20T06:27:53;1.47;;;1.27;;
70459;SDS011;57920;54.796;9.430;2022-12-20T06:30:19;2.17;;;1.20;;
70459;SDS011;57920;54.796;9.430;2022-12-20T06:32:45;1.60;;;1.50;;
70459;SDS011;57920;54.796;9.430;2022-12-20T06:35:10;1.50;;;1.40;;
70459;SDS011;57920;54.796;9.430;2022-12-20T06:37:36;1.97;;;1.23;;
70459;SDS011;57920;54.796;9.430;2022-12-20T06:40:04;2.43;;;1.30;;
70459;SDS011;57920;54.796;9.430;2022-12-20T06:42:31;1.13;;;1.00;;
70459;SDS011;57920;54.796;9.430;2022-12-20T06:45:05;1.23;;;1.13;;
70459;SDS011;57920;54.796;9.430;2022-12-20T06:47:31;3.47;;;1.53;;
70459;SDS011;57920;54.796;9.430;2022-12-20T06:49:57;7.33;;;2.07;;
70459;SDS011;57920;54.796;9.430;2022-12-20T06:52:23;118.57;;;15.33;;
70459;SDS011;57920;54.796;9.430;2022-12-20T06:54:49;49.03;;;8.37;;
70459;SDS011;57920;54.796;9.430;2022-12-20T06:57:15;43.07;;;7.63;;
70459;SDS011;57920;54.796;9.430;2022-12-20T06:59:41;40.00;;;6.33;;
70459;SDS011;57920;54.796;9.430;2022-12-20T07:02:09;30.57;;;4.30;;
70459;SDS011;57920;54.796;9.430;2022-12-20T07:04:35;28.17;;;4.63;;
70459;SDS011;57920;54.796;9.430;2022-12-20T07:07:01;13.30;;;3.27;;
70459;SDS011;57920;54.796;9.430;2022-12-20T07:09:27;56.00;;;9.17;;
70459;SDS011;57920;54.796;9.430;2022-12-20T07:11:53;14.70;;;2.80;;
70459;SDS011;57920;54.796;9.430;2022-12-20T07:14:19;22.30;;;5.17;;
70459;SDS011;57920;54.796;9.430;2022-12-20T07:16:45;11.27;;;4.93;;
70459;SDS011;57920;54.796;9.430;2022-12-20T07:19:11;6.83;;;3.70;;
70459;SDS011;57920;54.796;9.430;2022-12-20T07:21:37;18.37;;;4.77;;
70459;SDS011;57920;54.796;9.430;2022-12-20T07:24:03;9.37;;;4.33;;
70459;SDS011;57920;54.796;9.430;2022-12-20T07:26:30;10.70;;;3.93;;
70459;SDS011;57920;54.796;9.430;2022-12-20T07:28:55;8.43;;;3.37;;
70459;SDS011;57920;54.796;9.430;2022-12-20T07:31:21;7.70;;;3.67;;
70459;SDS011;57920;54.796;9.430;2022-12-20T07:33:47;6.77;;;3.47;;
70459;SDS011;57920;54.796;9.430;2022-12-20T07:36:12;7.07;;;3.70;;
70459;SDS011;57920;54.796;9.430;2022-12-20T07:38:42;9.10;;;3.30;;
70459;SDS011;57920;54.796;9.430;2022-12-20T07:41:08;7.17;;;3.73;;
70459;SDS011;57920;54.796;9.430;2022-12-20T07:43:35;4.97;;;3.30;;
70459;SDS011;57920;54.796;9.430;2022-12-20T07:46:04;7.70;;;3.17;;
70459;SDS011;57920;54.796;9.430;2022-12-20T07:48:31;8.23;;;3.30;;
70459;SDS011;57920;54.796;9.430;2022-12-20T07:51:00;8.93;;;3.83;;
70459;SDS011;57920;54.796;9.430;2022-12-20T07:53:30;5.97;;;3.13;;
70459;SDS011;57920;54.796;9.430;2022-12-20T07:56:00;18.90;;;4.27;;
70459;SDS011;57920;54.796;9.430;2022-12-20T07:58:27;18.73;;;4.57;;
70459;SDS011;57920;54.796;9.430;2022-12-20T08:00:54;20.63;;;4.57;;
70459;SDS011;57920;54.796;9.430;2022-12-20T08:03:25;10.87;;;3.50;;
70459;SDS011;57920;54.796;9.430;2022-12-20T08:05:55;21.53;;;5.53;;
70459;SDS011;57920;54.796;9.430;2022-12-20T08:08:23;24.53;;;5.57;;
70459;SDS011;57920;54.796;9.430;2022-12-20T08:10:49;25.33;;;5.97;;
70459;SDS011;57920;54.796;9.430;2022-12-20T08:13:15;16.53;;;5.93;;
70459;SDS011;57920;54.796;9.430;2022-12-20T08:15:42;41.77;;;8.30;;
70459;SDS011;57920;54.796;9.430;2022-12-20T08:18:07;49.60;;;9.13;;
70459;SDS011;57920;54.796;9.430;2022-12-20T08:20:33;39.13;;;7.60;;
70459;SDS011;57920;54.796;9.430;2022-12-20T08:22:58;28.50;;;6.03;;
70459;SDS011;57920;54.796;9.430;2022-12-20T08:25:26;29.43;;;6.17;;
70459;SDS011;57920;54.796;9.430;2022-12-20T08:27:51;37.40;;;7.77;;
70459;SDS011;57920;54.796;9.430;2022-12-20T08:30:17;45.07;;;10.53;;
70459;SDS011;57920;54.796;9.430;2022-12-20T08:32:43;40.40;;;16.27;;
70459;SDS011;57920;54.796;9.430;2022-12-20T08:35:08;17.60;;;5.33;;
70459;SDS011;57920;54.796;9.430;2022-12-20T08:37:34;18.63;;;5.67;;
70459;SDS011;57920;54.796;9.430;2022-12-20T08:39:59;16.57;;;6.43;;
70459;SDS011;57920;54.796;9.430;2022-12-20T08:42:25;16.97;;;5.30;;
70459;SDS011;57920;54.796;9.430;2022-12-20T08:44:56;11.17;;;4.77;;
70459;SDS011;57920;54.796;9.430;2022-12-20T08:47:22;17.70;;;4.50;;
70459;SDS011;57920;54.796;9.430;2022-12-20T08:49:47;12.20;;;4.43;;
70459;SDS011;57920;54.796;9.430;2022-12-20T08:52:13;10.27;;;3.73;;
70459;SDS011;57920;54.796;9.430;2022-12-20T08:54:39;6.40;;;3.70;;
70459;SDS011;57920;54.796;9.430;2022-12-20T08:57:04;11.63;;;4.00;;
70459;SDS011;57920;54.796;9.430;2022-12-20T08:59:30;21.23;;;4.73;;
70459;SDS011;57920;54.796;9.430;2022-12-20T09:01:55;11.17;;;4.50;;
70459;SDS011;57920;54.796;9.430;2022-12-20T09:04:21;11.20;;;5.30;;
70459;SDS011;57920;54.796;9.430;2022-12-20T09:06:46;17.97;;;4.23;;
70459;SDS011;57920;54.796;9.430;2022-12-20T09:09:12;12.73;;;3.53;;
70459;SDS011;57920;54.796;9.430;2022-12-20T09:11:37;12.27;;;4.37;;
70459;SDS011;57920;54.796;9.430;2022-12-20T09:14:19;5.37;;;2.90;;
70459;SDS011;57920;54.796;9.430;2022-12-20T09:16:44;12.67;;;2.80;;
70459;SDS011;57920;54.796;9.430;2022-12-20T09:19:11;5.87;;;2.90;;
70459;SDS011;57920;54.796;9.430;2022-12-20T09:21:37;10.27;;;3.17;;
70459;SDS011;57920;54.796;9.430;2022-12-20T09:24:06;6.90;;;2.90;;
70459;SDS011;57920;54.796;9.430;2022-12-20T09:26:33;5.00;;;2.63;;
70459;SDS011;57920;54.796;9.430;2022-12-20T09:29:02;9.40;;;3.27;;
70459;SDS011;57920;54.796;9.430;2022-12-20T09:31:28;12.97;;;5.10;;
70459;SDS011;57920;54.796;9.430;2022-12-20T09:33:54;17.00;;;4.40;;
70459;SDS011;57920;54.796;9.430;2022-12-20T09:36:22;13.10;;;4.33;;
70459;SDS011;57920;54.796;9.430;2022-12-20T09:38:48;16.33;;;4.30;;
70459;SDS011;57920;54.796;9.430;2022-12-20T09:41:25;15.60;;;3.73;;
70459;SDS011;57920;54.796;9.430;2022-12-20T09:43:53;12.13;;;3.60;;
70459;SDS011;57920;54.796;9.430;2022-12-20T09:46:20;6.73;;;3.30;;
70459;SDS011;57920;54.796;9.430;2022-12-20T09:48:46;9.97;;;3.70;;
70459;SDS011;57920;54.796;9.430;2022-12-20T09:59:47;4.47;;;2.20;;
70459;SDS011;57920;54.796;9.430;2022-12-20T10:02:13;9.40;;;3.00;;
70459;SDS011;57920;54.796;9.430;2022-12-20T10:04:44;6.13;;;2.30;;
70459;SDS011;57920;54.796;9.430;2022-12-20T10:16:12;2.77;;;1.67;;
70459;SDS011;57920;54.796;9.430;2022-12-20T10:18:57;3.23;;;1.90;;
70459;SDS011;57920;54.796;9.430;2022-12-20T10:21:31;7.53;;;3.40;;
70459;SDS011;57920;54.796;9.430;2022-12-20T10:24:15;4.63;;;2.47;;
70459;SDS011;57920;54.796;9.430;2022-12-20T10:26:44;5.73;;;2.93;;
70459;SDS011;57920;54.796;9.430;2022-12-20T10:29:14;4.53;;;2.67;;
70459;SDS011;57920;54.796;9.430;2022-12-20T10:31:40;9.33;;;3.40;;
70459;SDS011;57920;54.796;9.430;2022-12-20T10:34:06;6.67;;;2.77;;
70459;SDS011;57920;54.796;9.430;2022-12-20T10:36:35;5.87;;;2.50;;
70459;SDS011;57920;54.796;9.430;2022-12-20T10:39:07;8.73;;;3.33;;
70459;SDS011;57920;54.796;9.430;2022-12-20T10:47:48;20.20;;;4.77;;
70459;SDS011;57920;54.796;9.430;2022-12-20T10:50:12;17.60;;;4.30;;
70459;SDS011;57920;54.796;9.430;2022-12-20T10:55:49;17.20;;;2.90;;
70459;SDS011;57920;54.796;9.430;2022-12-20T10:58:16;14.97;;;3.30;;
70459;SDS011;57920;54.796;9.430;2022-12-20T11:00:54;15.23;;;6.00;;
70459;SDS011;57920;54.796;9.430;2022-12-20T11:03:55;10.20;;;2.67;;
70459;SDS011;57920;54.796;9.430;2022-12-20T11:06:29;4.93;;;2.27;;
70459;SDS011;57920;54.796;9.430;2022-12-20T11:09:20;9.17;;;3.43;;
70459;SDS011;57920;54.796;9.430;2022-12-20T11:17:49;8.47;;;2.63;;
70459;SDS011;57920;54.796;9.430;2022-12-20T11:20:23;6.20;;;2.40;;
70459;SDS011;57920;54.796;9.430;2022-12-20T11:31:07;16.07;;;3.03;;
70459;SDS011;57920;54.796;9.430;2022-12-20T11:33:47;25.27;;;4.70;;
70459;SDS011;57920;54.796;9.430;2022-12-20T11:36:39;18.07;;;4.00;;
70459;SDS011;57920;54.796;9.430;2022-12-20T11:52:50;8.80;;;3.30;;
70459;SDS011;57920;54.796;9.430;2022-12-20T11:58:05;10.63;;;3.63;;
70459;SDS011;57920;54.796;9.430;2022-12-20T12:01:07;9.10;;;4.13;;
70459;SDS011;57920;54.796;9.430;2022-12-20T12:03:38;13.10;;;3.40;;
70459;SDS011;57920;54.796;9.430;2022-12-20T12:06:15;7.90;;;3.50;;
70459;SDS011;57920;54.796;9.430;2022-12-20T12:08:54;5.53;;;3.20;;
70459;SDS011;57920;54.796;9.430;2022-12-20T12:12:04;10.00;;;3.43;;
70459;SDS011;57920;54.796;9.430;2022-12-20T12:17:28;3.50;;;2.53;;
70459;SDS011;57920;54.796;9.430;2022-12-20T12:20:14;11.67;;;3.50;;
70459;SDS011;57920;54.796;9.430;2022-12-20T12:23:06;3.90;;;2.37;;
70459;SDS011;57920;54.796;9.430;2022-12-20T12:25:45;3.57;;;2.57;;
70459;SDS011;57920;54.796;9.430;2022-12-20T12:28:11;7.03;;;3.10;;
70459;SDS011;57920;54.796;9.430;2022-12-20T12:30:40;5.67;;;2.77;;
70459;SDS011;57920;54.796;9.430;2022-12-20T12:33:18;13.47;;;4.20;;
70459;SDS011;57920;54.796;9.430;2022-12-20T12:46:45;16.70;;;5.30;;
70459;SDS011;57920;54.796;9.430;2022-12-20T12:49:16;17.30;;;6.17;;
70459;SDS011;57920;54.796;9.430;2022-12-20T12:51:50;18.00;;;5.43;;
70459;SDS011;57920;54.796;9.430;2022-12-20T12:54:29;45.73;;;12.47;;
70459;SDS011;57920;54.796;9.430;2022-12-20T12:57:01;55.00;;;16.70;;
70459;SDS011;57920;54.796;9.430;2022-12-20T13:18:24;29.80;;;10.33;;
70459;SDS011;57920;54.796;9.430;2022-12-20T13:26:56;34.00;;;9.93;;
70459;SDS011;57920;54.796;9.430;2022-12-20T13:29:24;38.83;;;11.13;;
70459;SDS011;57920;54.796;9.430;2022-12-20T13:31:51;44.07;;;11.97;;
70459;SDS011;57920;54.796;9.430;2022-12-20T13:37:02;28.20;;;8.40;;
70459;SDS011;57920;54.796;9.430;2022-12-20T13:39:29;42.20;;;12.77;;
70459;SDS011;57920;54.796;9.430;2022-12-20T13:45:08;45.43;;;9.53;;
70459;SDS011;57920;54.796;9.430;2022-12-20T13:47:39;46.10;;;12.03;;
70459;SDS011;57920;54.796;9.430;2022-12-20T13:50:25;45.03;;;10.70;;
70459;SDS011;57920;54.796;9.430;2022-12-20T13:52:53;33.03;;;7.90;;
70459;SDS011;57920;54.796;9.430;2022-12-20T13:55:52;40.53;;;8.83;;
70459;SDS011;57920;54.796;9.430;2022-12-20T13:58:33;33.50;;;8.27;;
70459;SDS011;57920;54.796;9.430;2022-12-20T14:01:05;29.87;;;8.57;;
70459;SDS011;57920;54.796;9.430;2022-12-20T14:03:41;55.10;;;13.77;;
70459;SDS011;57920;54.796;9.430;2022-12-20T14:06:10;57.47;;;11.40;;
70459;SDS011;57920;54.796;9.430;2022-12-20T14:08:42;40.13;;;9.30;;
70459;SDS011;57920;54.796;9.430;2022-12-20T14:11:22;25.97;;;8.87;;
70459;SDS011;57920;54.796;9.430;2022-12-20T14:13:59;22.37;;;6.50;;
70459;SDS011;57920;54.796;9.430;2022-12-20T14:16:27;21.23;;;6.97;;
70459;SDS011;57920;54.796;9.430;2022-12-20T14:21:27;32.70;;;7.07;;
70459;SDS011;57920;54.796;9.430;2022-12-20T14:23:54;20.73;;;6.40;;
70459;SDS011;57920;54.796;9.430;2022-12-20T14:26:29;100.07;;;23.57;;
70459;SDS011;57920;54.796;9.430;2022-12-20T14:29:00;47.67;;;13.30;;
70459;SDS011;57920;54.796;9.430;2022-12-20T14:36:34;30.03;;;9.10;;
70459;SDS011;57920;54.796;9.430;2022-12-20T14:41:57;19.67;;;5.97;;
70459;SDS011;57920;54.796;9.430;2022-12-20T14:44:30;19.87;;;6.20;;
70459;SDS011;57920;54.796;9.430;2022-12-20T14:47:00;28.37;;;7.53;;
70459;SDS011;57920;54.796;9.430;2022-12-20T14:49:36;23.17;;;7.03;;
70459;SDS011;57920;54.796;9.430;2022-12-20T14:52:27;20.00;;;6.63;;
70459;SDS011;57920;54.796;9.430;2022-12-20T14:57:21;16.27;;;5.37;;
70459;SDS011;57920;54.796;9.430;2022-12-20T15:00:04;20.03;;;5.00;;
70459;SDS011;57920;54.796;9.430;2022-12-20T15:02:44;20.60;;;5.60;;
70459;SDS011;57920;54.796;9.430;2022-12-20T15:08:08;13.03;;;4.70;;
70459;SDS011;57920;54.796;9.430;2022-12-20T15:10:35;15.47;;;5.27;;
70459;SDS011;57920;54.796;9.430;2022-12-20T15:13:01;12.40;;;4.00;;
70459;SDS011;57920;54.796;9.430;2022-12-20T15:15:27;14.13;;;5.10;;
70459;SDS011;57920;54.796;9.430;2022-12-20T15:17:52;12.33;;;3.97;;
70459;SDS011;57920;54.796;9.430;2022-12-20T15:20:18;9.77;;;5.30;;
70459;SDS011;57920;54.796;9.430;2022-12-20T15:22:45;9.17;;;3.90;;
70459;SDS011;57920;54.796;9.430;2022-12-20T15:25:13;16.77;;;4.50;;
70459;SDS011;57920;54.796;9.430;2022-12-20T15:27:40;10.57;;;3.90;;
70459;SDS011;57920;54.796;9.430;2022-12-20T15:30:10;11.03;;;4.27;;
70459;SDS011;57920;54.796;9.430;2022-12-20T15:32:38;6.77;;;3.63;;
70459;SDS011;57920;54.796;9.430;2022-12-20T15:35:11;7.77;;;3.43;;
70459;SDS011;57920;54.796;9.430;2022-12-20T15:37:37;7.40;;;3.67;;
70459;SDS011;57920;54.796;9.430;2022-12-20T15:40:03;6.37;;;3.60;;
70459;SDS011;57920;54.796;9.430;2022-12-20T15:42:29;9.00;;;3.90;;
70459;SDS011;57920;54.796;9.430;2022-12-20T15:44:55;7.77;;;3.07;;
70459;SDS011;57920;54.796;9.430;2022-12-20T15:47:21;9.43;;;3.70;;
70459;SDS011;57920;54.796;9.430;2022-12-20T15:49:47;7.00;;;2.93;;
70459;SDS011;57920;54.796;9.430;2022-12-20T15:52:20;7.90;;;3.73;;
70459;SDS011;57920;54.796;9.430;2022-12-20T15:54:47;8.10;;;3.30;;
70459;SDS011;57920;54.796;9.430;2022-12-20T15:57:13;5.13;;;2.57;;
70459;SDS011;57920;54.796;9.430;2022-12-20T15:59:39;5.93;;;3.47;;
70459;SDS011;57920;54.796;9.430;2022-12-20T16:02:16;5.50;;;3.10;;
70459;SDS011;57920;54.796;9.430;2022-12-20T16:04:46;6.70;;;3.03;;
70459;SDS011;57920;54.796;9.430;2022-12-20T16:07:12;7.30;;;2.80;;
70459;SDS011;57920;54.796;9.430;2022-12-20T16:09:37;5.13;;;2.77;;
70459;SDS011;57920;54.796;9.430;2022-12-20T16:12:03;4.83;;;2.63;;
70459;SDS011;57920;54.796;9.430;2022-12-20T16:14:36;4.30;;;2.77;;
70459;SDS011;57920;54.796;9.430;2022-12-20T16:17:03;4.60;;;2.77;;
70459;SDS011;57920;54.796;9.430;2022-12-20T16:19:29;6.60;;;2.87;;
70459;SDS011;57920;54.796;9.430;2022-12-20T16:21:55;4.73;;;2.70;;
70459;SDS011;57920;54.796;9.430;2022-12-20T16:24:21;3.53;;;2.07;;
70459;SDS011;57920;54.796;9.430;2022-12-20T16:26:47;4.57;;;2.20;;
70459;SDS011;57920;54.796;9.430;2022-12-20T16:29:13;4.03;;;2.23;;
70459;SDS011;57920;54.796;9.430;2022-12-20T16:31:39;4.80;;;2.80;;
70459;SDS011;57920;54.796;9.430;2022-12-20T16:34:09;4.00;;;2.13;;
70459;SDS011;57920;54.796;9.430;2022-12-20T16:36:37;5.47;;;2.57;;
70459;SDS011;57920;54.796;9.430;2022-12-20T16:39:03;3.20;;;2.30;;
70459;SDS011;57920;54.796;9.430;2022-12-20T16:41:29;6.03;;;2.43;;
70459;SDS011;57920;54.796;9.430;2022-12-20T16:43:57;5.43;;;2.53;;
70459;SDS011;57920;54.796;9.430;2022-12-20T16:46:24;3.80;;;1.90;;
70459;SDS011;57920;54.796;9.430;2022-12-20T16:48:52;3.03;;;1.90;;
70459;SDS011;57920;54.796;9.430;2022-12-20T16:51:29;5.07;;;2.00;;
70459;SDS011;57920;54.796;9.430;2022-12-20T16:54:00;3.00;;;1.70;;
70459;SDS011;57920;54.796;9.430;2022-12-20T16:56:27;2.13;;;1.43;;
70459;SDS011;57920;54.796;9.430;2022-12-20T16:58:54;4.10;;;1.83;;
70459;SDS011;57920;54.796;9.430;2022-12-20T17:01:22;3.03;;;1.80;;
70459;SDS011;57920;54.796;9.430;2022-12-20T17:03:51;5.40;;;2.00;;
70459;SDS011;57920;54.796;9.430;2022-12-20T17:06:17;1.87;;;1.47;;
70459;SDS011;57920;54.796;9.430;2022-12-20T17:08:43;5.60;;;1.60;;
70459;SDS011;57920;54.796;9.430;2022-12-20T17:11:20;2.17;;;1.63;;
70459;SDS011;57920;54.796;9.430;2022-12-20T17:13:48;2.63;;;1.73;;